Time;durP1;ratioP1;P1;durP2;ratioP2;P2;SDS_P1;SDS_P2;PMS_P1;PMS_P2;Temp;Humidity;BMP_temperature;BMP_pressure;BME280_temperature;BME280_humidity;BME280_pressure;Samples;Min_cycle;Max_cycle;Signal;HPM_P1;HPM_P2
2021/04/13 00:01:31;;;;;;;3.00;2.70;;;19.20;29.70;;;;;;5033575;28;20139;-46
2021/04/13 00:04:01;;;;;;;2.53;2.33;;;19.20;29.70;;;;;;5031176;28;20109;-46
2021/04/13 00:06:32;;;;;;;2.50;2.30;;;19.20;29.70;;;;;;5028333;28;20033;-44
2021/04/13 00:09:11;;;;;;;2.55;2.35;;;19.20;29.70;;;;;;5026861;28;20060;-47
2021/04/13 00:11:37;;;;;;;2.70;2.50;;;19.20;29.70;;;;;;5030718;28;20029;-46
2021/04/13 00:14:07;;;;;;;2.47;2.28;;;19.20;29.70;;;;;;5028430;28;20540;-47
2021/04/13 00:16:34;;;;;;;2.65;2.42;;;19.20;29.60;;;;;;5031909;28;20370;-46
2021/04/13 00:19:00;;;;;;;2.88;2.50;;;19.30;29.60;;;;;;5033178;28;20495;-45
2021/04/13 00:21:35;;;;;;;2.60;2.40;;;19.20;29.60;;;;;;5031930;28;20036;-44
2021/04/13 00:24:15;;;;;;;2.40;2.20;;;19.20;30.40;;;;;;5032003;28;20075;-46
2021/04/13 00:26:49;;;;;;;2.97;2.78;;;19.30;29.70;;;;;;5030081;28;20080;-45
2021/04/13 00:29:19;;;;;;;2.90;2.70;;;19.30;29.60;;;;;;5031119;28;20116;-46
2021/04/13 00:31:48;;;;;;;2.70;2.50;;;19.20;29.60;;;;;;5026934;28;20041;-45
2021/04/13 00:34:45;;;;;;;2.53;2.33;;;19.20;29.60;;;;;;5025928;28;20025;-40
2021/04/13 00:37:21;;;;;;;2.58;2.38;;;19.20;29.70;;;;;;5023083;28;20053;-48
2021/04/13 00:39:48;;;;;;;2.60;2.40;;;19.20;29.60;;;;;;5027228;28;20396;-46
2021/04/13 00:42:21;;;;;;;2.67;2.47;;;19.20;29.70;;;;;;5027860;28;20025;-41
2021/04/13 00:44:52;;;;;;;2.88;2.58;;;19.20;29.70;;;;;;5028948;28;22013;-45
2021/04/13 00:47:32;;;;;;;2.78;2.50;;;19.10;29.70;;;;;;5025263;28;20101;-45
2021/04/13 00:50:02;;;;;;;2.70;2.50;;;19.20;29.70;;;;;;5026528;28;20091;-46
2021/04/13 00:52:43;;;;;;;2.90;2.70;;;19.30;29.70;;;;;;5024335;28;20056;-46
2021/04/13 00:55:16;;;;;;;2.80;2.60;;;19.20;29.60;;;;;;5024179;28;20041;-46
2021/04/13 00:57:46;;;;;;;2.80;2.60;;;19.30;29.60;;;;;;5026576;28;20487;-45
2021/04/13 01:00:21;;;;;;;2.80;2.60;;;19.20;29.60;;;;;;5031642;28;20028;-48
2021/04/13 01:02:47;;;;;;;2.72;2.53;;;19.20;29.50;;;;;;5027818;28;20112;-46
2021/04/13 01:05:21;;;;;;;2.80;2.60;;;19.20;29.60;;;;;;5019195;28;20100;-46
2021/04/13 01:07:46;;;;;;;2.90;2.70;;;19.30;29.60;;;;;;5028536;28;20025;-46
2021/04/13 01:10:17;;;;;;;2.70;2.50;;;19.30;29.50;;;;;;5018033;28;20033;-47
2021/04/13 01:12:51;;;;;;;2.70;2.50;;;19.30;29.50;;;;;;5019095;28;20527;-46
2021/04/13 01:15:17;;;;;;;2.83;2.63;;;19.30;29.50;;;;;;5023052;28;20408;-46
2021/04/13 01:17:44;;;;;;;2.47;2.35;;;19.30;29.50;;;;;;5030835;28;20035;-47
2021/04/13 01:20:31;;;;;;;3.00;2.70;;;19.30;29.50;;;;;;5026315;28;20025;-47
2021/04/13 01:23:13;;;;;;;2.63;2.43;;;19.30;29.50;;;;;;5026992;28;20032;-45
2021/04/13 01:25:42;;;;;;;2.92;2.70;;;19.40;29.40;;;;;;5025999;28;20057;-46
2021/04/13 01:28:12;;;;;;;2.80;2.60;;;19.30;30.10;;;;;;5026903;28;20053;-46
2021/04/13 01:30:48;;;;;;;3.00;2.70;;;19.30;29.40;;;;;;5028223;28;20025;-47
2021/04/13 01:33:23;;;;;;;2.60;2.40;;;19.30;29.40;;;;;;5032524;28;20029;-47
2021/04/13 01:35:58;;;;;;;2.60;2.40;;;19.30;29.40;;;;;;5017696;28;20122;-47
2021/04/13 01:38:39;;;;;;;2.75;2.55;;;19.30;29.50;;;;;;5020006;28;20018;-46
2021/04/13 01:43:46;;;;;;;2.85;2.65;;;19.20;29.50;;;;;;5017472;28;20040;-46
2021/04/13 01:46:12;;;;;;;2.55;2.38;;;19.20;29.50;;;;;;5017876;28;20116;-44
2021/04/13 01:48:40;;;;;;;2.90;2.70;;;19.30;29.50;;;;;;5023851;28;20137;-47
2021/04/13 01:51:08;;;;;;;2.70;2.50;;;19.30;29.50;;;;;;5023870;28;20044;-45
2021/04/13 01:53:43;;;;;;;2.88;2.67;;;19.30;29.50;;;;;;5024316;28;20044;-45
2021/04/13 01:56:20;;;;;;;2.80;2.60;;;19.20;29.60;;;;;;5025174;28;20033;-46
2021/04/13 01:58:47;;;;;;;2.78;2.58;;;19.20;29.50;;;;;;5031390;28;20037;-46
2021/04/13 02:01:37;;;;;;;2.58;2.38;;;19.20;29.50;;;;;;5026779;28;20045;-45
2021/04/13 02:04:22;;;;;;;3.00;2.80;;;19.20;29.50;;;;;;5028878;28;20032;-46
2021/04/13 02:06:49;;;;;;;2.75;2.55;;;19.20;29.40;;;;;;5021948;28;20878;-47
2021/04/13 02:09:29;;;;;;;2.55;2.35;;;19.20;29.60;;;;;;5020615;28;20025;-46
2021/04/13 02:12:01;;;;;;;2.65;2.45;;;19.20;30.10;;;;;;5021245;28;20022;-47
2021/04/13 02:14:32;;;;;;;2.80;2.60;;;19.20;29.40;;;;;;5025746;28;20018;-45
2021/04/13 02:17:04;;;;;;;2.70;2.50;;;19.20;29.40;;;;;;5030745;28;20091;-45
2021/04/13 02:19:31;;;;;;;2.60;2.40;;;19.30;29.30;;;;;;5020500;28;20625;-46
2021/04/13 02:22:09;;;;;;;2.70;2.50;;;19.30;29.50;;;;;;5027500;28;20032;-48
2021/04/13 02:24:37;;;;;;;2.90;2.65;;;19.20;29.30;;;;;;5020022;28;20291;-47
2021/04/13 02:27:11;;;;;;;2.70;2.50;;;19.20;29.40;;;;;;5022764;28;20060;-45
2021/04/13 02:29:43;;;;;;;2.88;2.60;;;19.20;29.50;;;;;;5028463;28;20109;-46
2021/04/13 02:32:22;;;;;;;3.05;2.75;;;19.20;29.40;;;;;;5021910;28;20144;-47
2021/04/13 02:34:52;;;;;;;2.67;2.47;;;19.30;29.40;;;;;;5023550;28;20549;-45
2021/04/13 02:37:37;;;;;;;2.80;2.60;;;19.20;29.40;;;;;;5028327;28;20112;-46
2021/04/13 02:40:15;;;;;;;2.60;2.40;;;19.20;29.70;;;;;;5022569;28;20033;-46
2021/04/13 02:42:46;;;;;;;2.67;2.47;;;19.30;29.40;;;;;;5027844;28;20489;-45
2021/04/13 02:45:25;;;;;;;2.95;2.75;;;19.30;29.30;;;;;;5026493;28;20026;-48
2021/04/13 02:47:55;;;;;;;2.80;2.60;;;19.20;29.40;;;;;;5027850;28;20037;-45
2021/04/13 02:50:23;;;;;;;2.67;2.47;;;19.20;29.40;;;;;;5034190;28;20100;-46
2021/04/13 02:52:52;;;;;;;;;;;19.20;29.40;;;;;;5031465;28;20038;-47
2021/04/13 02:55:31;;;;;;;2.70;2.50;;;19.20;29.30;;;;;;5026709;28;19979;-45
2021/04/13 02:58:02;;;;;;;2.58;2.38;;;19.10;29.40;;;;;;5023481;28;20033;-47
2021/04/13 03:00:32;;;;;;;3.05;2.85;;;19.10;29.40;;;;;;5030266;28;20030;-46
2021/04/13 03:03:07;;;;;;;2.70;2.50;;;19.10;29.50;;;;;;5030174;28;20354;-46
2021/04/13 03:05:35;;;;;;;3.72;2.67;;;19.10;29.50;;;;;;5028816;28;20028;-44
2021/04/13 03:08:14;;;;;;;2.83;2.63;;;19.10;29.50;;;;;;5031037;28;20025;-46
2021/04/13 03:10:43;;;;;;;3.00;2.80;;;19.10;29.30;;;;;;5013799;28;20025;-46
2021/04/13 03:13:14;;;;;;;3.25;3.05;;;19.20;29.40;;;;;;5031430;28;20041;-45
2021/04/13 03:15:41;;;;;;;2.75;2.55;;;19.20;29.30;;;;;;5025714;28;20028;-47
2021/04/13 03:18:17;;;;;;;2.63;2.42;;;19.10;29.40;;;;;;5032248;28;20049;-47
2021/04/13 03:20:52;;;;;;;3.47;2.70;;;19.10;29.30;;;;;;5028794;28;20025;-47
2021/04/13 03:23:20;;;;;;;3.15;2.88;;;19.20;29.40;;;;;;5030693;28;20028;-46
2021/04/13 03:25:55;;;;;;;3.10;2.90;;;19.20;29.30;;;;;;5022085;28;20172;-46
2021/04/13 03:28:26;;;;;;;3.00;2.80;;;19.10;29.30;;;;;;5034982;28;20029;-44
2021/04/13 03:30:53;;;;;;;2.85;2.65;;;19.10;29.30;;;;;;5031241;28;20030;-46
2021/04/13 03:33:22;;;;;;;3.28;3.03;;;19.20;29.40;;;;;;5030231;28;20037;-46
2021/04/13 03:35:47;;;;;;;3.47;2.88;;;19.20;29.30;;;;;;5031484;28;20033;-48
2021/04/13 03:38:19;;;;;;;2.70;2.50;;;19.20;29.20;;;;;;5031999;28;20014;-46
2021/04/13 03:40:48;;;;;;;3.03;2.83;;;19.20;29.10;;;;;;5030645;28;20033;-47
2021/04/13 03:43:16;;;;;;;3.20;3.00;;;19.30;29.20;;;;;;5028964;28;20114;-45
2021/04/13 03:45:43;;;;;;;3.05;2.85;;;19.20;29.10;;;;;;5030648;28;20025;-47
2021/04/13 03:48:16;;;;;;;3.13;2.92;;;19.20;29.30;;;;;;5026740;28;20050;-46
2021/04/13 03:50:42;;;;;;;3.10;2.80;;;19.20;29.20;;;;;;5032488;28;20029;-46
2021/04/13 03:53:11;;;;;;;3.10;2.90;;;19.20;29.10;;;;;;5028745;28;20025;-45
2021/04/13 03:55:38;;;;;;;3.20;3.00;;;19.20;29.10;;;;;;5023132;28;20025;-45
2021/04/13 03:58:21;;;;;;;2.90;2.70;;;19.20;29.10;;;;;;5024500;28;20505;-46
2021/04/13 04:00:46;;;;;;;2.95;2.75;;;19.20;29.10;;;;;;5028867;28;20084;-44
2021/04/13 04:03:13;;;;;;;3.20;2.90;;;19.20;29.10;;;;;;5037097;28;20033;-46
2021/04/13 04:05:57;;;;;;;2.92;2.72;;;19.30;29.10;;;;;;5029774;28;20029;-45
2021/04/13 04:08:36;;;;;;;3.30;3.00;;;19.20;29.10;;;;;;5031103;28;20033;-47
2021/04/13 04:11:02;;;;;;;3.60;3.30;;;19.20;29.10;;;;;;5030719;28;20732;-44
2021/04/13 04:13:37;;;;;;;2.90;2.70;;;19.20;29.10;;;;;;5030067;28;20052;-47
2021/04/13 04:16:12;;;;;;;3.08;2.88;;;19.20;29.10;;;;;;5028877;28;20391;-45
2021/04/13 04:18:44;;;;;;;3.05;2.85;;;19.10;29.10;;;;;;5023663;28;20014;-46
2021/04/13 04:21:32;;;;;;;3.00;2.80;;;19.10;29.20;;;;;;5025778;28;20130;-46
2021/04/13 04:24:06;;;;;;;3.10;2.90;;;19.10;29.20;;;;;;5032432;28;20017;-45
2021/04/13 04:26:44;;;;;;;3.42;3.13;;;19.10;29.20;;;;;;5032935;28;20400;-46
2021/04/13 04:29:34;;;;;;;2.90;2.70;;;19.10;29.10;;;;;;5031340;28;20022;-46
2021/04/13 04:32:20;;;;;;;3.13;2.92;;;19.20;29.10;;;;;;5028455;28;20056;-47
2021/04/13 04:34:45;;;;;;;3.28;2.97;;;19.20;29.10;;;;;;5029124;28;20056;-47
2021/04/13 04:37:55;;;;;;;3.05;2.85;;;19.10;29.00;;;;;;5024125;28;20552;-47
2021/04/13 04:40:26;;;;;;;3.10;2.90;;;19.10;29.10;;;;;;5023079;28;20108;-46
2021/04/13 04:42:55;;;;;;;2.90;2.70;;;19.20;29.10;;;;;;5026305;28;20025;-46
2021/04/13 04:45:42;;;;;;;2.90;2.70;;;19.20;29.10;;;;;;5023795;28;20112;-45
2021/04/13 04:48:38;;;;;;;2.88;2.67;;;19.10;29.10;;;;;;5029865;28;20190;-45
2021/04/13 04:51:12;;;;;;;3.10;2.80;;;19.10;29.00;;;;;;5017156;28;20055;-45
2021/04/13 04:53:40;;;;;;;3.20;2.90;;;19.20;29.10;;;;;;5028199;28;20519;-46
2021/04/13 04:56:08;;;;;;;3.05;2.85;;;19.10;29.10;;;;;;5017417;28;20049;-45
2021/04/13 04:58:34;;;;;;;2.80;2.60;;;19.20;29.10;;;;;;5028262;28;20366;-45
2021/04/13 05:01:00;;;;;;;3.10;2.80;;;19.20;29.00;;;;;;5027180;28;20041;-45
2021/04/13 05:03:28;;;;;;;2.85;2.65;;;19.20;29.00;;;;;;5033256;28;20087;-47
2021/04/13 05:05:55;;;;;;;2.70;2.50;;;19.20;29.00;;;;;;5031696;28;20028;-45
2021/04/13 05:08:22;;;;;;;3.00;2.80;;;19.20;28.90;;;;;;5028033;28;20833;-47
2021/04/13 05:10:49;;;;;;;2.88;2.67;;;19.20;28.90;;;;;;5025162;28;20154;-44
2021/04/13 05:13:15;;;;;;;3.08;2.80;;;19.20;28.90;;;;;;5028719;28;20052;-47
2021/04/13 05:15:41;;;;;;;2.90;2.70;;;19.10;28.90;;;;;;5033688;28;20656;-46
2021/04/13 05:18:07;;;;;;;3.25;3.05;;;19.10;29.00;;;;;;5028385;28;20029;-46
2021/04/13 05:20:33;;;;;;;3.65;2.72;;;19.20;29.00;;;;;;5024552;28;20461;-46
2021/04/13 05:22:58;;;;;;;2.85;2.65;;;19.20;28.90;;;;;;5031982;28;20032;-45
2021/04/13 05:25:24;;;;;;;3.05;2.80;;;19.20;28.90;;;;;;5027121;28;20028;-45
2021/04/13 05:27:50;;;;;;;2.90;2.70;;;19.20;29.00;;;;;;5027040;28;20400;-45
2021/04/13 05:30:17;;;;;;;2.90;2.70;;;19.10;28.90;;;;;;5014659;28;20056;-46
2021/04/13 05:32:43;;;;;;;3.23;3.00;;;19.20;29.00;;;;;;5026339;28;20025;-46
2021/04/13 05:35:10;;;;;;;3.00;2.80;;;19.10;28.90;;;;;;5028443;28;20270;-47
2021/04/13 05:37:36;;;;;;;2.65;2.45;;;19.10;28.90;;;;;;5028050;28;20021;-46
2021/04/13 05:40:05;;;;;;;2.80;2.60;;;19.20;28.90;;;;;;5028129;28;20388;-46
2021/04/13 05:42:32;;;;;;;3.30;3.08;;;19.20;28.90;;;;;;5030767;28;20017;-44
2021/04/13 05:44:59;;;;;;;2.63;2.47;;;19.20;28.90;;;;;;5022669;28;20022;-46
2021/04/13 05:47:28;;;;;;;2.83;2.63;;;19.20;28.90;;;;;;5025782;28;20021;-47
2021/04/13 05:49:54;;;;;;;2.88;2.67;;;19.20;28.90;;;;;;5029675;28;20634;-46
2021/04/13 05:52:20;;;;;;;3.30;3.00;;;19.20;28.80;;;;;;5026385;28;20034;-46
2021/04/13 05:54:45;;;;;;;3.30;3.00;;;19.20;28.80;;;;;;5028269;28;20025;-46
2021/04/13 05:57:14;;;;;;;2.88;2.67;;;19.20;28.80;;;;;;5027219;28;20025;-46
2021/04/13 05:59:41;;;;;;;3.10;2.80;;;19.20;28.90;;;;;;5024670;28;20053;-46
2021/04/13 06:02:12;;;;;;;3.00;2.67;;;19.20;28.80;;;;;;5027491;28;20123;-46
2021/04/13 06:04:38;;;;;;;3.20;2.90;;;19.10;28.80;;;;;;5025842;28;20030;-45
2021/04/13 06:07:04;;;;;;;3.08;2.78;;;19.10;28.90;;;;;;5036471;28;20048;-46
2021/04/13 06:09:29;;;;;;;2.92;2.72;;;19.10;29.00;;;;;;5030894;28;20069;-45
2021/04/13 06:11:56;;;;;;;3.05;2.80;;;19.10;28.90;;;;;;5031541;28;20024;-47
2021/04/13 06:14:23;;;;;;;3.00;2.80;;;19.20;28.80;;;;;;5030530;28;20060;-45
2021/04/13 06:16:50;;;;;;;3.10;2.90;;;19.20;28.80;;;;;;5036276;28;20025;-43
2021/04/13 06:19:16;;;;;;;2.80;2.60;;;19.20;28.80;;;;;;5029455;28;20014;-45
2021/04/13 06:21:42;;;;;;;3.08;2.83;;;19.20;28.90;;;;;;5030561;28;20025;-45
2021/04/13 06:24:10;;;;;;;3.10;2.88;;;19.10;29.00;;;;;;5030478;28;20366;-45
2021/04/13 06:26:35;;;;;;;2.88;2.67;;;19.20;28.90;;;;;;5031836;28;20057;-47
2021/04/13 06:29:01;;;;;;;2.95;2.72;;;19.10;28.90;;;;;;5030413;28;20511;-46
2021/04/13 06:31:28;;;;;;;2.92;2.70;;;19.10;28.90;;;;;;5029321;28;20112;-46
2021/04/13 06:33:53;;;;;;;3.30;3.05;;;19.00;29.00;;;;;;5033006;28;20055;-47
2021/04/13 06:36:22;;;;;;;3.00;2.80;;;19.10;29.00;;;;;;5031951;28;20052;-46
2021/04/13 06:38:49;;;;;;;4.53;3.10;;;19.10;29.00;;;;;;5026489;28;20029;-45
2021/04/13 06:41:29;;;;;;;2.70;2.50;;;19.10;29.00;;;;;;5027091;28;20037;-46
2021/04/13 06:44:13;;;;;;;3.20;2.90;;;19.10;29.00;;;;;;5031643;28;20314;-47
2021/04/13 06:46:51;;;;;;;3.00;2.80;;;19.20;28.90;;;;;;5028353;28;20022;-47
2021/04/13 06:49:44;;;;;;;3.30;3.00;;;19.20;29.00;;;;;;5027907;28;20152;-46
2021/04/13 06:52:19;;;;;;;2.70;2.50;;;19.10;29.00;;;;;;5028574;28;20112;-46
2021/04/13 06:55:21;;;;;;;2.67;2.47;;;19.10;29.00;;;;;;5029758;28;20033;-46
2021/04/13 06:58:17;;;;;;;2.92;2.72;;;19.10;29.10;;;;;;5045737;28;20458;-46
2021/04/13 07:00:48;;;;;;;2.78;2.58;;;19.10;29.00;;;;;;5031168;28;20072;-46
2021/04/13 07:03:27;;;;;;;3.15;2.50;;;19.20;29.10;;;;;;5033071;28;20025;-47
2021/04/13 07:05:55;;;;;;;2.75;2.55;;;19.20;29.10;;;;;;5030865;28;20546;-46
2021/04/13 07:08:31;;;;;;;2.80;2.60;;;19.20;29.00;;;;;;5037214;28;20079;-46
2021/04/13 07:11:03;;;;;;;2.53;2.33;;;19.30;29.00;;;;;;5029040;28;20018;-47
2021/04/13 07:13:44;;;;;;;2.65;2.45;;;19.30;28.90;;;;;;5027930;28;20116;-47
2021/04/13 07:16:18;;;;;;;2.60;2.40;;;19.30;28.90;;;;;;5032793;28;20049;-48
2021/04/13 07:19:06;;;;;;;2.90;2.70;;;19.40;28.90;;;;;;5027983;28;20107;-46
2021/04/13 07:21:39;;;;;;;2.63;2.42;;;19.40;28.90;;;;;;5034782;28;20035;-46
2021/04/13 07:24:14;;;;;;;2.50;2.30;;;19.40;28.90;;;;;;5028205;28;20028;-46
2021/04/13 07:26:51;;;;;;;2.22;2.08;;;19.40;28.90;;;;;;5033973;28;20018;-46
2021/04/13 07:29:33;;;;;;;2.60;2.40;;;19.40;29.10;;;;;;5020099;28;20045;-46
2021/04/13 07:31:59;;;;;;;2.20;2.10;;;19.30;28.90;;;;;;5018881;28;20037;-47
2021/04/13 07:34:25;;;;;;;2.08;1.90;;;19.30;29.00;;;;;;5027603;28;20036;-46
2021/04/13 07:37:10;;;;;;;2.50;2.30;;;19.40;29.00;;;;;;5027672;28;20040;-46
2021/04/13 07:39:45;;;;;;;2.42;2.22;;;19.30;28.90;;;;;;5023787;28;20488;-46
2021/04/13 07:42:19;;;;;;;2.22;2.03;;;19.30;28.60;;;;;;5028305;28;20171;-47
2021/04/13 07:45:18;;;;;;;2.42;2.22;;;19.20;28.70;;;;;;5025819;28;20025;-46
2021/04/13 07:48:02;;;;;;;2.15;2.05;;;19.20;28.70;;;;;;5027718;28;20496;-47
2021/04/13 07:50:49;;;;;;;2.13;2.00;;;19.20;28.80;;;;;;5024137;28;20117;-46
2021/04/13 07:53:41;;;;;;;2.13;1.92;;;19.00;29.00;;;;;;5027714;28;20034;-46
2021/04/13 07:56:27;;;;;;;2.58;2.25;;;18.90;29.00;;;;;;5028264;28;20037;-45
2021/04/13 07:59:07;;;;;;;2.08;1.98;;;19.00;29.00;;;;;;5020757;28;20033;-46
2021/04/13 08:01:32;;;;;;;2.10;2.00;;;19.00;28.90;;;;;;5020197;28;20049;-45
2021/04/13 08:03:58;;;;;;;1.77;1.67;;;18.80;29.00;;;;;;5021396;28;20026;-47
2021/04/13 08:06:27;;;;;;;1.90;1.80;;;18.80;29.20;;;;;;5025461;28;20038;-46
2021/04/13 08:09:12;;;;;;;2.13;2.03;;;18.70;29.10;;;;;;5025669;28;20048;-47
2021/04/13 08:11:38;;;;;;;1.92;1.80;;;18.80;29.20;;;;;;5026171;28;20025;-47
2021/04/13 08:14:21;;;;;;;1.88;1.77;;;18.80;29.20;;;;;;5025076;28;20040;-47
2021/04/13 08:16:47;;;;;;;2.20;2.00;;;18.80;28.90;;;;;;5027321;28;20030;-45
2021/04/13 08:19:23;;;;;;;1.83;1.73;;;18.80;29.00;;;;;;5028456;28;20401;-45
2021/04/13 08:22:21;;;;;;;1.80;1.70;;;18.90;29.00;;;;;;5032170;28;20492;-46
2021/04/13 08:24:58;;;;;;;1.80;1.70;;;18.90;28.90;;;;;;5025114;28;20118;-46
2021/04/13 08:27:45;;;;;;;1.90;1.80;;;18.90;29.00;;;;;;5025246;28;20021;-47
2021/04/13 08:30:43;;;;;;;1.90;1.80;;;18.90;29.00;;;;;;5025120;28;20049;-46
2021/04/13 08:33:33;;;;;;;1.95;1.77;;;19.10;28.60;;;;;;5026004;28;20046;-45
2021/04/13 08:36:15;;;;;;;1.38;1.27;;;19.00;28.50;;;;;;5023904;28;20025;-46
2021/04/13 08:39:05;;;;;;;2.72;1.83;;;18.90;28.70;;;;;;5025265;28;20045;-46
2021/04/13 08:41:33;;;;;;;1.60;1.50;;;18.80;28.80;;;;;;5021110;28;20163;-47
2021/04/13 08:44:24;;;;;;;1.83;1.73;;;18.80;29.00;;;;;;5026610;28;20029;-46
2021/04/13 08:47:20;;;;;;;1.60;1.50;;;18.90;29.00;;;;;;5026495;28;20092;-47
2021/04/13 08:49:58;;;;;;;1.60;1.50;;;19.00;29.10;;;;;;4996236;28;20033;-46
2021/04/13 08:52:27;;;;;;;1.92;1.80;;;19.10;29.10;;;;;;5023744;28;20064;-46
2021/04/13 08:55:14;;;;;;;1.70;1.60;;;19.30;29.00;;;;;;5022887;28;20033;-46
2021/04/13 08:58:22;;;;;;;1.60;1.50;;;19.70;28.70;;;;;;5026290;28;20021;-45
2021/04/13 09:00:50;;;;;;;2.08;1.88;;;19.70;28.60;;;;;;5024439;28;20048;-45
2021/04/13 09:03:21;;;;;;;1.50;1.40;;;19.60;28.50;;;;;;5023007;28;20052;-47
2021/04/13 09:05:49;;;;;;;1.85;1.75;;;19.40;28.40;;;;;;5025390;28;20041;-45
2021/04/13 09:09:13;;;;;;;1.70;1.60;;;19.30;28.50;;;;;;5025041;28;20041;-47
2021/04/13 09:12:13;;;;;;;1.70;1.60;;;19.10;28.80;;;;;;5002045;28;20654;-46
2021/04/13 09:15:00;;;;;;;1.77;1.60;;;18.90;28.90;;;;;;4987690;28;20034;-46
2021/04/13 09:17:30;;;;;;;1.57;1.40;;;18.90;29.10;;;;;;5020528;28;20029;-46
2021/04/13 09:20:24;;;;;;;1.80;1.70;;;18.80;29.20;;;;;;5026398;28;20041;-46
2021/04/13 09:23:13;;;;;;;1.50;1.40;;;19.10;29.00;;;;;;5019062;28;20099;-46
2021/04/13 09:25:54;;;;;;;1.48;1.38;;;18.80;28.90;;;;;;5025373;28;20048;-46
2021/04/13 09:28:40;;;;;;;1.60;1.50;;;18.90;29.00;;;;;;5025744;28;20018;-46
2021/04/13 09:31:09;;;;;;;1.77;1.52;;;18.70;29.20;;;;;;5025263;28;20029;-46
2021/04/13 09:33:37;;;;;;;1.52;1.42;;;18.70;29.10;;;;;;5024256;28;20464;-47
2021/04/13 09:36:14;;;;;;;1.45;1.38;;;18.90;29.00;;;;;;5023906;28;20116;-47
2021/04/13 09:39:15;;;;;;;1.35;1.23;;;18.80;28.90;;;;;;5026139;28;20492;-47
2021/04/13 09:42:06;;;;;;;1.35;1.25;;;18.60;29.00;;;;;;5022731;28;20124;-46
2021/04/13 09:44:50;;;;;;;2.25;1.30;;;18.70;29.10;;;;;;5024730;28;20040;-46
2021/04/13 09:47:41;;;;;;;1.50;1.40;;;18.70;29.10;;;;;;5023743;28;20025;-46
2021/04/13 09:50:30;;;;;;;1.52;1.40;;;18.70;29.20;;;;;;5025143;28;20025;-47
2021/04/13 09:53:31;;;;;;;1.40;1.30;;;18.80;29.10;;;;;;5027464;28;20495;-45
2021/04/13 09:56:13;;;;;;;1.92;1.50;;;18.70;29.00;;;;;;5025501;28;20064;-47
2021/04/13 09:59:05;;;;;;;1.50;1.40;;;18.70;29.10;;;;;;5027536;28;20025;-46
2021/04/13 10:01:46;;;;;;;1.63;1.52;;;18.70;28.60;;;;;;5020764;28;20037;-45
2021/04/13 10:04:30;;;;;;;1.35;1.25;;;18.90;28.60;;;;;;5024929;28;20091;-46
2021/04/13 10:07:05;;;;;;;1.50;1.40;;;18.90;28.50;;;;;;5026490;28;20079;-47
2021/04/13 10:09:39;;;;;;;1.33;1.33;;;19.00;28.30;;;;;;5026441;28;20048;-47
2021/04/13 10:12:23;;;;;;;1.60;1.50;;;19.10;28.20;;;;;;5025437;28;20084;-46
2021/04/13 10:15:06;;;;;;;1.95;1.77;;;19.00;28.10;;;;;;5018693;28;20041;-46
2021/04/13 10:17:57;;;;;;;1.73;1.63;;;19.10;28.10;;;;;;5022908;28;20022;-45
2021/04/13 10:20:29;;;;;;;1.50;1.40;;;19.00;28.10;;;;;;5023768;28;20052;-46
2021/04/13 10:23:03;;;;;;;1.70;1.60;;;18.90;28.30;;;;;;5022824;28;20025;-45
2021/04/13 10:26:05;;;;;;;1.50;1.40;;;18.90;28.30;;;;;;5016978;28;20022;-46
2021/04/13 10:28:52;;;;;;;1.50;1.40;;;18.90;28.30;;;;;;5026632;28;20045;-46
2021/04/13 10:31:39;;;;;;;1.30;1.30;;;19.00;28.10;;;;;;5029509;28;20496;-46
2021/04/13 10:34:42;;;;;;;1.30;1.30;;;18.90;28.20;;;;;;5020837;28;20040;-46
2021/04/13 10:37:46;;;;;;;1.70;1.60;;;18.90;28.30;;;;;;5001691;28;20033;-46
2021/04/13 10:40:50;;;;;;;1.50;1.40;;;18.90;28.20;;;;;;4973477;28;20509;-46
2021/04/13 10:43:54;;;;;;;1.40;1.30;;;18.80;28.20;;;;;;5022514;28;20084;-47
2021/04/13 10:46:31;;;;;;;1.58;1.48;;;18.80;28.50;;;;;;5023433;28;20795;-46
2021/04/13 10:49:16;;;;;;;1.80;1.70;;;18.70;28.50;;;;;;5027806;28;20544;-46
2021/04/13 10:52:09;;;;;;;1.60;1.50;;;18.90;28.20;;;;;;5025413;28;20046;-46
2021/04/13 10:54:56;;;;;;;1.95;1.85;;;18.80;28.20;;;;;;5022094;28;20029;-47
2021/04/13 10:57:37;;;;;;;1.77;1.52;;;19.10;28.00;;;;;;5030589;28;20125;-47
2021/04/13 11:00:20;;;;;;;1.80;1.70;;;18.90;28.00;;;;;;5028707;28;20033;-46
2021/04/13 11:03:07;;;;;;;2.47;1.80;;;19.00;27.90;;;;;;5025051;28;20043;-45
2021/04/13 11:05:38;;;;;;;1.95;1.60;;;19.00;27.80;;;;;;5023866;28;20025;-46
2021/04/13 11:08:41;;;;;;;1.70;1.60;;;19.10;27.70;;;;;;5025737;28;20021;-46
2021/04/13 11:11:31;;;;;;;1.60;1.50;;;18.80;27.90;;;;;;5026072;28;20164;-45
2021/04/13 11:14:23;;;;;;;2.00;1.90;;;18.80;28.00;;;;;;5019634;28;20114;-46
2021/04/13 11:17:07;;;;;;;1.20;1.20;;;18.70;28.10;;;;;;5028506;28;20428;-46
2021/04/13 11:19:57;;;;;;;1.17;1.17;;;18.70;28.40;;;;;;5031835;28;20044;-46
2021/04/13 11:22:50;;;;;;;1.77;1.23;;;19.00;28.40;;;;;;5026213;28;20028;-45
2021/04/13 11:25:26;;;;;;;0.90;0.90;;;19.10;28.50;;;;;;5027915;28;20037;-46
2021/04/13 11:28:10;;;;;;;1.10;1.10;;;19.00;28.40;;;;;;5028390;28;20017;-46
2021/04/13 11:30:51;;;;;;;1.27;1.10;;;19.20;28.30;;;;;;5030208;28;20099;-47
2021/04/13 11:33:35;;;;;;;1.33;1.10;;;19.30;28.50;;;;;;5025958;28;20048;-46
2021/04/13 11:36:32;;;;;;;1.45;1.15;;;19.40;28.30;;;;;;5024454;28;20022;-47
2021/04/13 11:39:00;;;;;;;1.52;1.45;;;19.30;28.10;;;;;;5025963;28;20033;-46
2021/04/13 11:42:08;;;;;;;1.80;1.70;;;19.30;27.80;;;;;;5028116;28;20026;-46
2021/04/13 11:44:43;;;;;;;1.60;1.50;;;19.30;27.80;;;;;;5030106;28;20029;-45
2021/04/13 11:47:32;;;;;;;1.45;1.40;;;19.30;27.80;;;;;;5034316;28;20029;-46
2021/04/13 11:50:04;;;;;;;2.30;1.55;;;18.90;28.20;;;;;;5023953;28;20075;-46
2021/04/13 11:52:44;;;;;;;1.17;1.10;;;19.00;28.50;;;;;;5025961;28;20108;-45
2021/04/13 11:55:29;;;;;;;1.30;1.20;;;19.10;28.50;;;;;;5026392;28;20029;-45
2021/04/13 11:58:09;;;;;;;1.13;1.13;;;19.20;28.60;;;;;;5026563;28;20022;-47
2021/04/13 12:00:35;;;;;;;1.70;1.60;;;19.30;28.50;;;;;;5023644;28;20087;-46
2021/04/13 12:03:19;;;;;;;2.42;1.95;;;19.30;28.30;;;;;;5028425;28;20100;-46
2021/04/13 12:06:03;;;;;;;2.00;1.75;;;19.50;27.80;;;;;;5028071;28;20037;-46
2021/04/13 12:08:31;;;;;;;1.35;1.30;;;19.40;27.70;;;;;;5024835;28;20021;-46
2021/04/13 12:10:59;;;;;;;1.40;1.30;;;19.40;27.60;;;;;;5024961;28;20461;-46
2021/04/13 12:13:49;;;;;;;1.45;1.35;;;19.30;27.70;;;;;;5025732;28;20489;-47
2021/04/13 12:16:18;;;;;;;1.60;1.50;;;19.00;28.00;;;;;;5030331;28;20030;-46
2021/04/13 12:18:46;;;;;;;1.30;1.20;;;18.90;28.10;;;;;;5028007;28;20083;-45
2021/04/13 12:22:01;;;;;;;1.40;1.30;;;18.90;28.20;;;;;;5027660;28;20083;-47
2021/04/13 12:24:41;;;;;;;1.40;1.30;;;18.70;28.50;;;;;;5022067;28;20524;-46
2021/04/13 12:27:25;;;;;;;1.25;1.15;;;18.80;28.50;;;;;;5023509;28;20586;-47
2021/04/13 12:29:52;;;;;;;1.65;1.10;;;18.80;28.50;;;;;;5028823;28;20029;-45
2021/04/13 12:32:18;;;;;;;2.08;1.15;;;18.80;28.60;;;;;;5018881;28;20454;-45
2021/04/13 12:34:47;;;;;;;1.67;1.17;;;18.90;28.50;;;;;;5028392;28;20018;-47
2021/04/13 12:37:47;;;;;;;1.45;1.30;;;19.00;28.50;;;;;;5032806;28;20028;-46
2021/04/13 12:40:19;;;;;;;1.70;1.60;;;19.10;28.40;;;;;;5030848;28;20401;-46
2021/04/13 12:42:52;;;;;;;1.35;1.10;;;19.20;28.30;;;;;;5034609;28;20025;-47
2021/04/13 12:45:21;;;;;;;1.42;1.10;;;19.00;28.30;;;;;;5026505;28;20021;-46
2021/04/13 12:47:59;;;;;;;1.90;1.23;;;19.00;28.50;;;;;;5026758;28;20384;-46
2021/04/13 12:50:30;;;;;;;1.30;1.20;;;18.90;28.40;;;;;;5025309;28;20068;-45
2021/04/13 12:52:56;;;;;;;1.30;1.20;;;19.00;28.50;;;;;;5027242;28;20032;-45
2021/04/13 12:55:24;;;;;;;1.55;1.30;;;19.00;28.40;;;;;;5025799;28;20075;-45
2021/04/13 12:57:55;;;;;;;1.45;1.35;;;19.10;28.20;;;;;;5027507;28;20025;-46
2021/04/13 13:00:24;;;;;;;2.10;1.60;;;19.20;28.70;;;;;;5027652;28;20030;-47
2021/04/13 13:02:51;;;;;;;1.67;1.58;;;19.20;28.60;;;;;;5023289;28;20083;-47
2021/04/13 13:05:39;;;;;;;1.60;1.50;;;19.20;27.80;;;;;;5026020;28;20780;-46
2021/04/13 13:08:07;;;;;;;1.50;1.38;;;19.10;27.70;;;;;;5029359;28;20032;-47
2021/04/13 13:10:38;;;;;;;1.70;1.60;;;19.10;27.70;;;;;;5027024;28;20040;-47
2021/04/13 13:13:19;;;;;;;1.88;1.63;;;19.00;27.80;;;;;;5028917;28;20017;-46
2021/04/13 13:15:47;;;;;;;1.48;1.38;;;18.80;27.90;;;;;;5025976;28;20120;-47
2021/04/13 13:18:23;;;;;;;1.52;1.40;;;18.80;27.90;;;;;;5026730;28;20056;-47
2021/04/13 13:20:57;;;;;;;1.58;1.48;;;18.70;28.00;;;;;;5028463;28;20060;-45
2021/04/13 13:23:37;;;;;;;1.20;1.10;;;18.90;28.00;;;;;;5027994;28;20575;-46
2021/04/13 13:26:18;;;;;;;1.40;1.30;;;18.70;28.10;;;;;;5026688;28;20516;-46
2021/04/13 13:28:44;;;;;;;1.40;1.27;;;18.60;28.10;;;;;;5028322;28;20543;-47
2021/04/13 13:31:16;;;;;;;1.60;1.45;;;18.50;28.40;;;;;;5027851;28;20037;-45
2021/04/13 13:33:44;;;;;;;1.70;1.35;;;18.50;28.30;;;;;;5026775;28;20025;-46
2021/04/13 13:36:11;;;;;;;1.50;1.40;;;18.60;28.20;;;;;;5028525;28;20029;-47
2021/04/13 13:38:39;;;;;;;1.50;1.40;;;18.90;27.90;;;;;;5025979;28;20018;-47